createdAt,value
2022-11-24T01:12:31.775Z,7.47
2022-11-24T01:41:25.611Z,7.2
2022-11-24T02:10:14.485Z,6.64
2022-11-24T02:39:04.480Z,6.46
2022-11-24T03:07:54.411Z,6.83
2022-11-24T03:36:23.443Z,7.03
2022-11-24T04:05:02.673Z,7.17
2022-11-24T04:33:38.282Z,7.26
2022-11-24T05:02:14.606Z,7.18
2022-11-24T05:30:52.434Z,7.34
2022-11-24T05:59:39.027Z,7.26
2022-11-24T06:28:03.905Z,7.08
2022-11-24T06:56:46.962Z,7.06
2022-11-24T07:25:25.755Z,7.08
2022-11-24T07:54:09.514Z,7.13
2022-11-24T08:22:38.130Z,7.23
2022-11-24T08:51:16.696Z,7.69
2022-11-24T09:49:55.184Z,8.54
2022-11-24T10:18:31.288Z,9.08
2022-11-24T10:47:26.305Z,9.44
2022-11-24T11:16:08.828Z,10.02
2022-11-24T11:44:45.193Z,10.34
2022-11-24T12:13:14.807Z,10.63
2022-11-24T12:41:45.581Z,10.35
2022-11-24T13:10:09.849Z,10.28
2022-11-24T13:38:55.208Z,10.18
2022-11-24T14:07:05.496Z,10.05
2022-11-24T14:35:12.247Z,10.09
2022-11-24T15:03:27.720Z,9.9
2022-11-24T15:34:29.097Z,9.15
2022-11-24T16:02:32.704Z,8.19
2022-11-24T16:31:27.973Z,7.36
2022-11-24T16:59:40.081Z,7.01
2022-11-24T17:27:45.985Z,7.25
2022-11-24T17:56:19.226Z,7.37
2022-11-24T18:24:39.389Z,7.27
2022-11-24T18:52:54.805Z,6.83
2022-11-24T19:21:20.521Z,6.57
2022-11-24T19:49:41.362Z,6.02
2022-11-24T20:18:09.804Z,5.52
2022-11-24T20:46:30.715Z,5.13
2022-11-24T21:15:01.510Z,4.81
2022-11-24T21:43:29.756Z,4.39
2022-11-24T22:11:51.050Z,4.29
2022-11-24T22:40:30.242Z,4.31
2022-11-24T23:09:13.395Z,4.39
2022-11-24T23:38:07.252Z,4.43
